createdAt,value
2022-07-29T00:01:01.959Z,8.36
2022-07-29T00:03:29.856Z,8.33
2022-07-29T00:06:02.221Z,8.24
2022-07-29T00:08:30.033Z,8.08
2022-07-29T00:10:59.283Z,8.07
2022-07-29T00:13:32.456Z,8.01
2022-07-29T00:16:04.795Z,7.90
2022-07-29T00:18:37.146Z,7.88
2022-07-29T00:21:05.333Z,7.87
2022-07-29T00:23:36.734Z,8.01
2022-07-29T00:26:10.070Z,8.01
2022-07-29T00:28:39.969Z,7.89
2022-07-29T00:31:09.049Z,7.76
2022-07-29T00:33:38.813Z,7.76
2022-07-29T00:36:07.972Z,7.73
2022-07-29T00:38:35.901Z,7.76
2022-07-29T00:41:05.695Z,7.67
2022-07-29T00:43:35.128Z,7.63
2022-07-29T00:46:03.104Z,7.60
2022-07-29T00:48:33.077Z,7.50
2022-07-29T00:51:05.178Z,7.42
2022-07-29T00:53:33.955Z,7.35
2022-07-29T00:56:02.492Z,7.31
2022-07-29T00:58:37.018Z,7.27
2022-07-29T01:01:04.957Z,7.27
2022-07-29T01:03:32.851Z,7.17
2022-07-29T01:06:04.967Z,7.14
2022-07-29T01:08:34.810Z,7.11
2022-07-29T01:11:05.616Z,7.11
2022-07-29T01:13:37.415Z,7.08
2022-07-29T01:16:15.038Z,7.09
2022-07-29T01:18:50.407Z,7.21
2022-07-29T01:21:29.835Z,7.50
2022-07-29T01:24:34.127Z,7.65
2022-07-29T01:27:19.230Z,7.59
2022-07-29T01:29:56.214Z,7.38
2022-07-29T01:32:31.101Z,7.26
2022-07-29T01:35:07.868Z,7.17
2022-07-29T01:37:45.223Z,7.07
2022-07-29T01:40:22.839Z,7.02
2022-07-29T01:42:56.811Z,6.97
2022-07-29T01:45:33.595Z,6.93
2022-07-29T01:48:07.345Z,6.85
2022-07-29T01:50:39.905Z,6.77
2022-07-29T01:53:12.724Z,6.65
2022-07-29T01:55:46.724Z,6.82
2022-07-29T01:58:19.920Z,6.87
2022-07-29T02:00:51.155Z,6.74
2022-07-29T02:03:22.111Z,6.82
2022-07-29T02:05:50.492Z,7.06
2022-07-29T02:08:22.739Z,7.01
2022-07-29T02:10:54.975Z,6.85
2022-07-29T02:13:26.876Z,6.79
2022-07-29T02:15:59.431Z,6.75
2022-07-29T02:18:32.545Z,6.68
2022-07-29T02:21:02.887Z,6.71
2022-07-29T02:23:50.966Z,6.95
2022-07-29T02:26:19.975Z,7.23
2022-07-29T02:28:53.995Z,7.11
2022-07-29T02:31:27.163Z,6.82
2022-07-29T02:34:00.943Z,6.66
2022-07-29T02:36:30.770Z,6.63
2022-07-29T02:39:01.764Z,6.57
2022-07-29T02:41:33.918Z,6.55
2022-07-29T02:44:08.484Z,6.59
2022-07-29T02:46:39.828Z,6.55
2022-07-29T02:49:15.418Z,6.56
2022-07-29T02:51:49.156Z,6.55
2022-07-29T02:54:33.087Z,6.48
2022-07-29T02:57:07.629Z,6.54
2022-07-29T02:59:39.627Z,6.54
2022-07-29T03:02:13.628Z,6.51
2022-07-29T03:04:46.173Z,6.56
2022-07-29T03:07:19.902Z,6.68
2022-07-29T03:09:51.674Z,6.76
2022-07-29T03:12:23.017Z,6.76
2022-07-29T03:14:54.403Z,7.01
2022-07-29T03:17:26.040Z,7.07
2022-07-29T03:19:57.157Z,6.98
2022-07-29T03:22:25.887Z,7.00
2022-07-29T03:24:55.647Z,7.03
2022-07-29T03:27:25.664Z,7.09
2022-07-29T03:29:53.485Z,7.13
2022-07-29T03:32:25.125Z,7.24
2022-07-29T03:34:56.574Z,7.35
2022-07-29T03:37:26.240Z,7.51
2022-07-29T03:39:57.189Z,7.57
2022-07-29T03:42:34.201Z,7.64
2022-07-29T03:45:05.583Z,7.73
2022-07-29T03:47:50.200Z,7.82
2022-07-29T03:50:23.969Z,7.91
2022-07-29T03:52:54.108Z,8.00
2022-07-29T03:55:22.310Z,8.11
2022-07-29T03:57:52.605Z,8.23
2022-07-29T04:00:22.533Z,8.33
2022-07-29T04:02:50.396Z,8.44
2022-07-29T04:05:26.307Z,8.60
2022-07-29T04:07:54.169Z,8.73
2022-07-29T04:10:32.066Z,8.87
2022-07-29T04:13:06.076Z,9.00
2022-07-29T04:15:33.932Z,9.15
2022-07-29T04:18:01.812Z,9.30
2022-07-29T04:20:35.139Z,9.50
2022-07-29T04:23:02.984Z,9.71
2022-07-29T04:25:30.871Z,9.86
2022-07-29T04:28:05.828Z,10.02
2022-07-29T04:30:34.881Z,10.22
2022-07-29T04:33:07.010Z,10.43
2022-07-29T04:35:49.965Z,10.65
2022-07-29T04:38:20.246Z,10.92
2022-07-29T04:40:52.110Z,11.38
2022-07-29T04:43:23.229Z,11.52
2022-07-29T04:45:55.397Z,11.67
2022-07-29T04:48:28.242Z,11.72
2022-07-29T04:51:01.828Z,11.94
2022-07-29T04:53:29.461Z,12.21
2022-07-29T04:55:57.240Z,12.42
2022-07-29T04:58:29.274Z,12.50
2022-07-29T05:00:57.024Z,12.59
2022-07-29T05:03:24.636Z,12.70
2022-07-29T05:05:56.214Z,12.89
2022-07-29T05:08:25.553Z,12.98
2022-07-29T05:10:53.160Z,13.06
2022-07-29T05:13:25.067Z,13.34
2022-07-29T05:15:52.995Z,13.48
2022-07-29T05:18:20.622Z,13.51
2022-07-29T05:20:57.768Z,13.55
2022-07-29T05:23:26.780Z,13.98
2022-07-29T05:25:54.340Z,15.25
2022-07-29T05:28:26.025Z,16.77
2022-07-29T05:30:53.681Z,17.62
2022-07-29T05:33:36.105Z,18.48
2022-07-29T05:36:09.756Z,19.23
2022-07-29T05:38:38.740Z,19.50
2022-07-29T05:41:06.629Z,19.65
2022-07-29T05:43:38.336Z,19.36
2022-07-29T05:46:05.987Z,18.30
2022-07-29T05:48:33.659Z,17.36
2022-07-29T05:51:05.427Z,17.14
2022-07-29T05:53:33.104Z,16.97
2022-07-29T05:56:05.082Z,16.82
2022-07-29T05:58:36.887Z,16.77
2022-07-29T06:01:04.548Z,16.94
2022-07-29T06:03:32.329Z,16.89
2022-07-29T06:06:02.479Z,16.82
2022-07-29T06:08:30.096Z,16.83
2022-07-29T06:10:57.715Z,17.18
2022-07-29T06:13:27.377Z,17.36
2022-07-29T06:15:57.278Z,17.37
2022-07-29T06:18:24.970Z,17.46
2022-07-29T06:20:57.287Z,17.44
2022-07-29T06:23:24.991Z,17.33
2022-07-29T06:25:52.658Z,17.31
2022-07-29T06:28:24.564Z,17.59
2022-07-29T06:30:53.557Z,17.85
2022-07-29T06:33:21.340Z,18.05
2022-07-29T06:35:55.112Z,18.11
2022-07-29T06:38:30.950Z,18.16
2022-07-29T06:41:05.370Z,17.94
2022-07-29T06:43:35.054Z,18.35
2022-07-29T06:46:09.261Z,18.60
2022-07-29T06:48:38.077Z,18.83
2022-07-29T06:51:08.028Z,19.05
2022-07-29T06:53:38.334Z,19.52
2022-07-29T06:56:06.825Z,19.47
2022-07-29T06:58:36.473Z,18.99
2022-07-29T07:03:50.501Z,19.00
2022-07-29T07:06:20.291Z,19.26
2022-07-29T07:08:49.013Z,19.36
2022-07-29T07:11:16.736Z,19.46
2022-07-29T07:13:44.509Z,19.78
2022-07-29T07:16:13.545Z,19.54
2022-07-29T07:18:41.803Z,19.54
2022-07-29T07:21:09.574Z,19.50
2022-07-29T07:23:39.490Z,19.52
2022-07-29T07:26:07.381Z,19.34
2022-07-29T07:28:36.171Z,19.54
2022-07-29T07:31:05.954Z,19.95
2022-07-29T07:33:36.920Z,19.88
2022-07-29T07:36:04.696Z,19.61
2022-07-29T07:38:34.425Z,19.41
2022-07-29T07:41:04.163Z,19.44
2022-07-29T07:43:31.892Z,19.66
2022-07-29T07:46:01.677Z,20.02
2022-07-29T07:48:35.877Z,20.34
2022-07-29T07:51:06.979Z,20.08
2022-07-29T07:53:34.840Z,20.47
2022-07-29T07:56:11.086Z,20.35
2022-07-29T07:58:39.883Z,20.15
2022-07-29T08:01:07.927Z,19.99
2022-07-29T08:05:56.357Z,20.34
2022-07-29T08:10:02.618Z,20.18
2022-07-29T08:12:30.899Z,20.08
2022-07-29T08:14:58.784Z,19.83
2022-07-29T08:17:29.333Z,20.02
2022-07-29T08:19:57.237Z,20.31
2022-07-29T08:22:24.999Z,20.50
2022-07-29T08:24:56.309Z,20.50
2022-07-29T08:27:44.591Z,20.63
2022-07-29T08:30:13.174Z,20.66
2022-07-29T08:32:53.903Z,20.74
2022-07-29T08:35:24.011Z,20.91
2022-07-29T08:37:52.735Z,20.94
2022-07-29T08:40:21.536Z,21.20
2022-07-29T08:43:07.906Z,21.30
2022-07-29T08:45:47.318Z,21.57
2022-07-29T08:48:23.038Z,22.03
2022-07-29T08:50:57.616Z,22.38
2022-07-29T08:53:31.552Z,21.68
2022-07-29T08:56:00.506Z,21.29
2022-07-29T08:58:38.471Z,21.16
2022-07-29T09:01:07.499Z,21.00
2022-07-29T09:03:40.105Z,21.39
2022-07-29T09:06:08.398Z,21.97
2022-07-29T09:08:37.227Z,22.09
2022-07-29T09:11:07.485Z,22.12
2022-07-29T09:13:36.998Z,22.32
2022-07-29T09:16:09.317Z,21.01
2022-07-29T09:18:43.202Z,21.15
2022-07-29T09:21:30.106Z,21.77
2022-07-29T09:24:10.794Z,21.27
2022-07-29T09:26:41.518Z,21.03
2022-07-29T09:29:19.348Z,21.04
2022-07-29T09:31:48.948Z,20.81
2022-07-29T09:34:24.638Z,20.94
2022-07-29T09:36:54.585Z,21.50
2022-07-29T09:39:35.481Z,21.75
2022-07-29T09:42:06.062Z,22.17
2022-07-29T09:44:49.296Z,22.85
2022-07-29T09:47:19.426Z,22.61
2022-07-29T09:50:01.115Z,22.73
2022-07-29T09:52:30.830Z,22.79
2022-07-29T09:55:09.896Z,22.04
2022-07-29T09:57:41.932Z,22.58
2022-07-29T10:00:18.034Z,22.27
2022-07-29T10:02:47.928Z,23.04
2022-07-29T10:05:23.384Z,22.87
2022-07-29T10:07:54.206Z,22.66
2022-07-29T10:10:29.333Z,22.28
2022-07-29T10:13:03.104Z,22.10
2022-07-29T10:15:42.094Z,21.86
2022-07-29T10:18:10.735Z,22.13
2022-07-29T10:20:42.145Z,22.13
2022-07-29T10:23:13.119Z,21.81
2022-07-29T10:25:46.189Z,21.49
2022-07-29T10:28:16.754Z,21.44
2022-07-29T10:30:51.723Z,21.83
2022-07-29T10:33:43.709Z,22.06
2022-07-29T10:36:26.314Z,22.40
2022-07-29T10:39:03.951Z,22.66
2022-07-29T10:41:49.129Z,22.15
2022-07-29T10:44:22.826Z,21.32
2022-07-29T10:46:54.577Z,20.93
2022-07-29T10:49:25.445Z,21.09
2022-07-29T10:51:58.569Z,21.46
2022-07-29T10:54:46.195Z,22.60
2022-07-29T10:57:52.298Z,22.62
2022-07-29T11:00:34.232Z,21.98
2022-07-29T11:03:10.882Z,22.03
2022-07-29T11:05:59.575Z,21.74
2022-07-29T11:08:28.948Z,22.42
2022-07-29T11:11:51.418Z,23.29
2022-07-29T11:14:58.242Z,24.36
2022-07-29T11:17:26.459Z,24.40
2022-07-29T11:20:33.685Z,23.75
2022-07-29T11:23:04.171Z,22.97
2022-07-29T11:25:42.366Z,22.81
2022-07-29T11:28:25.157Z,22.52
2022-07-29T11:30:55.148Z,22.73
2022-07-29T11:33:54.169Z,23.45
2022-07-29T11:39:36.943Z,23.36
2022-07-29T11:42:42.000Z,23.72
2022-07-29T11:45:42.535Z,23.71
2022-07-29T11:48:29.012Z,24.19
2022-07-29T11:50:51.995Z,24.16
2022-07-29T11:53:21.739Z,23.55
2022-07-29T11:55:59.421Z,22.53
2022-07-29T11:58:30.573Z,22.00
2022-07-29T12:01:04.223Z,22.32
2022-07-29T12:03:35.988Z,22.81
2022-07-29T12:06:07.470Z,22.97
2022-07-29T12:08:43.704Z,23.33
2022-07-29T12:11:20.577Z,23.52
2022-07-29T12:13:52.818Z,24.09
2022-07-29T12:16:26.134Z,24.16
2022-07-29T12:19:02.287Z,23.76
2022-07-29T12:21:31.373Z,23.47
2022-07-29T12:24:05.846Z,22.70
2022-07-29T12:26:37.945Z,23.06
2022-07-29T12:29:14.790Z,23.56
2022-07-29T12:31:48.852Z,23.67
2022-07-29T12:34:18.209Z,23.35
2022-07-29T12:36:46.527Z,23.50
2022-07-29T12:39:22.385Z,24.06
2022-07-29T12:41:50.301Z,23.85
2022-07-29T12:44:18.249Z,23.65
2022-07-29T12:46:49.473Z,23.37
2022-07-29T12:49:23.844Z,23.30
2022-07-29T12:51:56.930Z,23.59
2022-07-29T12:54:26.559Z,23.22
2022-07-29T12:57:03.569Z,23.40
2022-07-29T12:59:31.827Z,23.63
2022-07-29T13:02:01.033Z,23.88
2022-07-29T13:04:33.421Z,23.88
2022-07-29T13:07:05.150Z,23.90
2022-07-29T13:09:44.338Z,23.78
2022-07-29T13:12:13.975Z,23.67
2022-07-29T13:14:43.677Z,23.48
2022-07-29T13:17:13.509Z,23.64
2022-07-29T13:19:43.190Z,23.37
2022-07-29T13:22:12.508Z,23.35
2022-07-29T13:24:57.888Z,23.73
2022-07-29T13:27:27.805Z,23.72
2022-07-29T13:30:01.379Z,23.39
2022-07-29T13:32:30.857Z,22.80
2022-07-29T13:35:05.664Z,22.52
2022-07-29T13:37:36.877Z,22.86
2022-07-29T13:40:11.746Z,22.71
2022-07-29T13:42:40.098Z,23.07
2022-07-29T13:45:11.724Z,23.42
2022-07-29T13:47:47.452Z,23.50
2022-07-29T13:50:19.803Z,23.53
2022-07-29T13:52:51.497Z,23.58
2022-07-29T13:55:23.014Z,23.75
2022-07-29T13:57:51.051Z,23.71
2022-07-29T14:00:23.144Z,23.67
2022-07-29T14:02:51.069Z,24.05
2022-07-29T14:05:18.984Z,24.19
2022-07-29T14:07:51.262Z,23.52
2022-07-29T14:10:20.666Z,23.47
2022-07-29T14:12:48.613Z,23.44
2022-07-29T14:15:20.825Z,23.09
2022-07-29T14:17:48.840Z,22.34
2022-07-29T14:20:17.646Z,21.67
2022-07-29T14:22:50.135Z,21.72
2022-07-29T14:25:18.245Z,22.06
2022-07-29T14:27:56.223Z,22.35
2022-07-29T14:30:28.720Z,22.73
2022-07-29T14:32:56.561Z,22.77
2022-07-29T14:35:26.613Z,23.21
2022-07-29T14:37:56.721Z,23.29
2022-07-29T14:40:24.851Z,23.11
2022-07-29T14:42:56.186Z,23.52
2022-07-29T14:45:24.834Z,23.68
2022-07-29T14:47:53.386Z,23.74
2022-07-29T14:50:31.738Z,23.73
2022-07-29T14:53:00.206Z,23.14
2022-07-29T14:55:32.830Z,23.03
2022-07-29T14:58:09.914Z,23.06
2022-07-29T15:00:44.225Z,22.79
2022-07-29T15:03:12.169Z,22.75
2022-07-29T15:05:40.469Z,23.09
2022-07-29T15:08:13.394Z,23.25
2022-07-29T15:10:41.303Z,23.51
2022-07-29T15:13:10.684Z,23.98
2022-07-29T15:15:45.381Z,24.29
2022-07-29T15:18:13.527Z,24.26
2022-07-29T15:20:41.623Z,24.28
2022-07-29T15:23:15.460Z,23.91
2022-07-29T15:25:44.408Z,24.05
2022-07-29T15:28:15.830Z,24.17
2022-07-29T15:30:45.966Z,24.05
2022-07-29T15:33:14.020Z,23.51
2022-07-29T15:35:41.996Z,23.18
2022-07-29T15:38:14.092Z,23.25
2022-07-29T15:40:43.936Z,23.57
2022-07-29T15:43:17.916Z,23.69
2022-07-29T15:46:01.916Z,23.36
2022-07-29T15:48:32.378Z,23.57
2022-07-29T15:54:07.330Z,23.73
2022-07-29T15:56:37.750Z,23.71
2022-07-29T15:59:07.138Z,23.85
2022-07-29T16:01:42.453Z,24.18
2022-07-29T16:04:10.518Z,24.23
2022-07-29T16:06:42.600Z,24.17
2022-07-29T16:09:10.935Z,24.40
2022-07-29T16:11:38.912Z,24.52
2022-07-29T16:14:14.269Z,24.65
2022-07-29T16:16:43.649Z,24.28
2022-07-29T16:19:11.687Z,24.34
2022-07-29T16:21:42.456Z,24.57
2022-07-29T16:24:12.950Z,24.40
2022-07-29T16:26:41.028Z,24.11
2022-07-29T16:29:12.613Z,23.88
2022-07-29T16:31:45.020Z,24.00
2022-07-29T16:34:13.123Z,23.90
2022-07-29T16:36:47.754Z,23.88
2022-07-29T16:39:18.119Z,23.97
2022-07-29T16:41:48.080Z,23.95
2022-07-29T16:44:17.918Z,23.87
2022-07-29T16:46:49.384Z,23.97
2022-07-29T16:49:19.414Z,23.83
2022-07-29T16:51:47.897Z,23.67
2022-07-29T16:54:18.123Z,23.06
2022-07-29T16:56:48.147Z,22.60
2022-07-29T16:59:18.059Z,22.16
2022-07-29T17:01:48.658Z,22.23
2022-07-29T17:04:17.129Z,22.10
2022-07-29T17:06:45.446Z,22.02
2022-07-29T17:09:16.083Z,22.13
2022-07-29T17:11:52.967Z,22.20
2022-07-29T17:14:29.383Z,21.87
2022-07-29T17:17:02.032Z,21.58
2022-07-29T17:19:32.349Z,21.20
2022-07-29T17:22:18.642Z,21.01
2022-07-29T17:24:47.260Z,20.85
2022-07-29T17:27:18.007Z,20.69
2022-07-29T17:29:47.898Z,20.63
2022-07-29T17:32:16.023Z,20.54
2022-07-29T17:34:49.034Z,20.70
2022-07-29T17:37:18.936Z,20.82
2022-07-29T17:39:56.203Z,20.79
2022-07-29T17:42:26.736Z,21.21
2022-07-29T17:45:00.964Z,22.25
2022-07-29T17:47:33.734Z,22.39
2022-07-29T17:50:05.646Z,22.15
2022-07-29T17:52:37.817Z,21.97
2022-07-29T17:55:10.611Z,21.95
2022-07-29T17:57:40.873Z,22.03
2022-07-29T18:00:11.369Z,22.38
2022-07-29T18:02:50.332Z,22.09
2022-07-29T18:05:20.841Z,21.79
2022-07-29T18:07:58.403Z,21.61
2022-07-29T18:10:36.599Z,21.26
2022-07-29T18:13:05.363Z,21.17
2022-07-29T18:15:46.688Z,21.12
2022-07-29T18:18:22.688Z,20.71
2022-07-29T18:20:56.490Z,20.49
2022-07-29T18:23:36.067Z,20.30
2022-07-29T18:26:07.412Z,20.13
2022-07-29T18:28:40.472Z,20.14
2022-07-29T18:31:14.797Z,20.20
2022-07-29T18:33:46.300Z,20.11
2022-07-29T18:36:18.674Z,19.97
2022-07-29T18:38:51.738Z,19.76
2022-07-29T18:41:25.517Z,19.61
2022-07-29T18:43:57.252Z,19.51
2022-07-29T18:46:29.289Z,19.39
2022-07-29T18:49:02.757Z,19.26
2022-07-29T18:51:37.613Z,19.22
2022-07-29T18:54:14.023Z,19.14
2022-07-29T18:56:45.455Z,19.03
2022-07-29T18:59:20.418Z,18.87
2022-07-29T19:01:55.401Z,18.63
2022-07-29T19:04:31.512Z,18.50
2022-07-29T19:07:03.434Z,18.56
2022-07-29T19:09:34.171Z,18.22
2022-07-29T19:12:07.457Z,17.94
2022-07-29T19:14:38.912Z,17.76
2022-07-29T19:17:09.410Z,17.73
2022-07-29T19:19:41.136Z,17.79
2022-07-29T19:22:09.519Z,17.85
2022-07-29T19:24:38.671Z,17.72
2022-07-29T19:27:08.023Z,17.61
2022-07-29T19:29:41.307Z,17.57
2022-07-29T19:32:25.031Z,17.53
2022-07-29T19:35:09.327Z,17.56
2022-07-29T19:37:41.435Z,17.35
2022-07-29T19:40:12.695Z,17.17
2022-07-29T19:42:44.643Z,17.16
2022-07-29T19:45:14.130Z,16.97
2022-07-29T19:47:47.281Z,16.82
2022-07-29T19:50:20.684Z,16.68
2022-07-29T19:53:07.896Z,16.60
2022-07-29T19:55:41.425Z,16.49
2022-07-29T19:58:15.353Z,16.48
2022-07-29T20:00:45.203Z,16.35
2022-07-29T20:03:16.469Z,16.42
2022-07-29T20:05:49.281Z,16.34
2022-07-29T20:08:17.184Z,16.40
2022-07-29T20:10:45.301Z,16.59
2022-07-29T20:13:17.696Z,16.47
2022-07-29T20:15:47.522Z,16.33
2022-07-29T20:18:22.364Z,16.62
2022-07-29T20:21:05.411Z,16.54
2022-07-29T20:23:35.119Z,16.32
2022-07-29T20:26:06.099Z,16.14
2022-07-29T20:28:45.265Z,15.99
2022-07-29T20:31:27.237Z,16.12
2022-07-29T20:33:59.547Z,16.02
2022-07-29T20:36:29.675Z,15.99
2022-07-29T20:39:01.398Z,15.97
2022-07-29T20:41:39.347Z,15.94
2022-07-29T20:44:18.365Z,16.09
2022-07-29T20:46:48.830Z,16.13
2022-07-29T20:49:18.570Z,16.18
2022-07-29T20:51:49.053Z,16.16
2022-07-29T20:54:19.133Z,16.21
2022-07-29T20:56:53.359Z,16.07
2022-07-29T20:59:23.744Z,16.08
2022-07-29T21:01:57.140Z,16.03
2022-07-29T21:04:32.754Z,16.04
2022-07-29T21:07:01.582Z,15.95
2022-07-29T21:09:33.832Z,16.09
2022-07-29T21:12:04.739Z,16.12
2022-07-29T21:14:51.928Z,16.15
2022-07-29T21:17:22.644Z,16.08
2022-07-29T21:19:53.629Z,15.92
2022-07-29T21:22:22.465Z,15.94
2022-07-29T21:24:50.879Z,16.05
2022-07-29T21:27:38.629Z,16.06
2022-07-29T21:30:08.316Z,15.93
2022-07-29T21:32:36.856Z,15.95
2022-07-29T21:35:18.149Z,15.90
2022-07-29T21:37:54.379Z,15.87
2022-07-29T21:40:22.599Z,16.09
2022-07-29T21:42:50.597Z,15.91
2022-07-29T21:45:20.941Z,16.13
2022-07-29T21:47:49.969Z,15.95
2022-07-29T21:50:21.503Z,15.67
2022-07-29T21:52:55.710Z,15.70
2022-07-29T21:55:26.245Z,15.89
2022-07-29T21:58:00.073Z,15.87
2022-07-29T22:00:28.946Z,15.79
2022-07-29T22:02:57.186Z,15.59
2022-07-29T22:05:31.061Z,15.58
2022-07-29T22:08:01.349Z,15.74
2022-07-29T22:10:30.758Z,15.81
2022-07-29T22:13:02.631Z,15.72
2022-07-29T22:15:31.681Z,15.79
2022-07-29T22:18:00.308Z,15.76
2022-07-29T22:20:31.613Z,15.67
2022-07-29T22:23:03.805Z,15.73
2022-07-29T22:25:31.828Z,15.73
2022-07-29T22:28:01.503Z,15.77
2022-07-29T22:30:31.588Z,15.59
2022-07-29T22:32:59.594Z,15.43
2022-07-29T22:35:31.314Z,15.23
2022-07-29T22:37:59.559Z,15.30
2022-07-29T22:40:28.125Z,15.44
2022-07-29T22:43:00.653Z,15.60
2022-07-29T22:45:29.955Z,15.96
2022-07-29T22:47:59.521Z,15.82
2022-07-29T22:50:31.379Z,15.89
2022-07-29T22:53:01.465Z,15.78
2022-07-29T22:55:29.787Z,15.62
2022-07-29T22:57:58.004Z,15.36
2022-07-29T23:00:26.210Z,15.27
2022-07-29T23:02:54.064Z,15.33
2022-07-29T23:05:22.211Z,15.44
2022-07-29T23:07:53.565Z,15.38
2022-07-29T23:10:23.813Z,15.27
2022-07-29T23:12:51.679Z,15.12
2022-07-29T23:15:19.901Z,15.06
2022-07-29T23:17:52.695Z,15.04
2022-07-29T23:20:21.502Z,14.97
2022-07-29T23:22:49.599Z,15.05
2022-07-29T23:25:23.556Z,15.36
2022-07-29T23:27:51.503Z,15.37
2022-07-29T23:30:19.595Z,15.37
2022-07-29T23:32:51.552Z,15.37
2022-07-29T23:35:19.943Z,15.16
2022-07-29T23:37:49.151Z,14.73
2022-07-29T23:40:19.658Z,14.33
2022-07-29T23:42:48.120Z,14.28
2022-07-29T23:45:16.330Z,14.21
2022-07-29T23:47:48.573Z,14.05
2022-07-29T23:50:17.778Z,13.96
2022-07-29T23:52:46.018Z,13.81
2022-07-29T23:55:37.593Z,13.66
2022-07-29T23:58:09.339Z,13.66
